FW0267 Weather Reports


Display with metric or nautical units.
time (UTC)temp
F
wind
direction
speed
MPH
gust
MPH
rain 1hr
in
rain 24hr
in
rain mn
in
humidity
%
barometer
mb
20191014161616 65 128 0.0 1.0 0.00 0.33 0.00 85 1018.8
20191014160116 62 96 0.0 1.0 0.00 0.33 0.00 90 1018.9
20191014154554 61 98 0.0 1.0 0.00 0.33 0.00 92 1018.9
20191014153049 60 84 0.0 1.0 0.00 0.33 0.00 93 1019.0
20191014151551 60 110 0.0 0.0 0.00 0.33 0.00 95 1019.0
20191014150140 59 107 0.0 1.0 0.00 0.33 0.00 96 1019.2
20191014144530 59 107 0.0 0.0 0.00 0.33 0.00 97 1019.3
20191014143040 58 107 0.0 0.0 0.00 0.33 0.00 97 1019.1
20191014141543 58 107 0.0 2.0 0.00 0.33 0.00 97 1019.0
20191014140030 58 107 0.0 0.0 0.00 0.33 0.00 97 1018.9
20191014134520 58 107 0.0 0.0 0.00 0.33 0.00 97 1018.8
20191014133013 58 107 0.0 0.0 0.00 0.33 0.00 97 1018.8
20191014131510 58 107 0.0 0.0 0.00 0.33 0.00 97 1018.7
20191014130028 58 107 0.0 0.0 0.00 0.33 0.00 97 1018.5
20191014124532 58 107 0.0 0.0 0.00 0.33 0.00 97 1018.2
20191014123002 58 107 0.0 0.0 0.00 0.33 0.00 97 1017.8
20191014121645 58 107 0.0 0.0 0.00 0.33 0.00 97 1017.7
20191014120249 58 107 0.0 0.0 0.00 0.33 0.00 97 1017.6
20191014114711 58 107 0.0 0.0 0.00 0.33 0.00 97 1017.3
20191014113205 58 107 0.0 0.0 0.00 0.33 0.00 97 1017.2
20191014111644 58 107 0.0 0.0 0.00 0.33 0.00 97 1016.9
20191014110146 58 107 0.0 0.0 0.00 0.33 0.00 97 1016.5
20191014104601 58 107 0.0 0.0 0.00 0.33 0.00 97 1016.5
20191014103155 58 107 0.0 0.0 0.00 0.33 0.00 97 1016.6
20191014101643 58 107 0.0 0.0 0.00 0.33 0.00 97 1016.4
20191014100146 58 107 0.0 0.0 0.00 0.33 0.00 97 1016.2
20191014094704 58 107 0.0 0.0 0.00 0.33 0.00 97 1015.8
20191014093203 57 107 0.0 0.0 0.00 0.33 0.00 97 1015.3
20191014091634 57 107 0.0 0.0 0.00 0.33 0.00 97 1015.1
20191014090136 58 107 0.0 0.0 0.00 0.33 0.00 97 1014.9
20191014084638 58 107 0.0 0.0 0.00 0.33 0.00 97 1015.0
20191014083052 58 107 0.0 0.0 0.00 0.33 0.00 97 1014.9
20191014081604 58 107 0.0 0.0 0.00 0.33 0.00 97 1014.9
20191014080101 58 107 0.0 0.0 0.00 0.33 0.00 97 1015.0
20191014074600 58 107 0.0 0.0 0.00 0.33 0.00 97 1015.0
20191014073135 58 107 0.0 0.0 0.00 0.33 0.00 97 1014.9
20191014071657 58 107 0.0 0.0 0.00 0.33 0.00 97 1015.3
20191014070121 58 107 0.0 0.0 0.00 0.33 0.00 97 1015.3
20191014064613 58 107 0.0 0.0 0.00 0.33 0.00 97 1015.4
20191014063122 58 107 0.0 0.0 0.00 0.33 0.00 97 1015.7
20191014061630 58 107 0.0 0.0 0.00 0.33 0.00 97 1015.6
20191014060114 58 107 0.0 0.0 0.00 0.33 0.00 97 1015.9
20191014054611 58 107 0.0 0.0 0.00 0.33 0.00 97 1015.8
20191014053119 58 107 0.0 0.0 0.00 0.33 0.00 97 1015.8
20191014051638 58 107 0.0 0.0 0.00 0.33 0.00 97 1016.1
20191014050113 58 107 0.0 0.0 0.00 0.33 0.00 97 1016.2
20191014044545 58 107 0.0 0.0 0.00 0.33 0.00 97 1016.4
20191014043100 58 107 0.0 0.0 0.00 0.33 0.00 97 1016.4
20191014041537 59 107 0.0 0.0 0.00 0.33 0.00 97 1016.3
20191014040050 59 107 0.0 0.0 0.00 0.33 0.00 97 1016.5
20191014034556 59 107 0.0 0.0 0.00 0.33 0.33 97 1016.5
20191014033124 59 107 0.0 0.0 0.00 0.33 0.33 97 1016.6
20191014031534 59 107 0.0 0.0 0.00 0.33 0.33 97 1016.8
20191014030045 59 107 0.0 0.0 0.00 0.33 0.33 97 1016.5
20191014024538 59 107 0.0 0.0 0.00 0.33 0.33 97 1016.5
20191014023042 59 107 0.0 0.0 0.00 0.33 0.33 97 1016.6
20191014021536 59 107 0.0 0.0 0.00 0.33 0.33 97 1016.5
20191014020027 59 107 0.0 0.0 0.00 0.33 0.33 97 1016.4
20191014014607 59 107 0.0 1.0 0.00 0.33 0.33 97 1016.1
20191014013054 59 109 0.0 0.0 0.00 0.33 0.33 96 1016.7
20191014011527 59 109 0.0 0.0 0.00 0.33 0.33 96 1016.5
20191014010117 60 109 0.0 0.0 0.00 0.33 0.33 96 1016.8
20191014004608 60 109 0.0 1.0 0.00 0.33 0.33 96 1017.0
20191014003031 61 117 0.0 0.0 0.00 0.33 0.33 96 1017.1
20191014001534 61 117 0.0 0.0 0.00 0.33 0.33 96 1016.6
20191014000047 61 117 0.0 0.0 0.01 0.33 0.33 96 1016.4
20191013234551 61 117 0.0 0.0 0.04 0.33 0.33 96 1016.1
20191013233028 62 117 0.0 0.0 0.08 0.33 0.33 96 1016.3
20191013231540 62 117 0.0 0.0 0.14 0.33 0.33 96 1016.3
20191013230013 62 117 0.0 0.0 0.18 0.32 0.32 95 1016.4
20191013224537 62 117 0.0 0.0 0.16 0.28 0.28 95 1016.5
20191013223016 62 117 0.0 0.0 0.18 0.25 0.25 95 1016.7
20191013221513 62 117 0.0 0.0 0.16 0.19 0.19 95 1016.6
20191013220025 62 117 0.0 0.0 0.14 0.14 0.14 95 1016.3
20191013214522 62 117 0.0 0.0 0.12 0.12 0.12 94 1016.3
20191013213029 63 117 0.0 0.0 0.07 0.07 0.07 93 1016.6
20191013211508 63 117 0.0 0.0 0.03 0.03 0.03 92 1016.9
20191013210031 63 117 0.0 0.0 0.00 0.00 0.00 90 1016.8
20191013204522 64 117 0.0 0.0 0.00 0.00 0.00 90 1016.6
20191013203014 64 117 0.0 0.0 0.00 0.00 0.00 89 1016.6
20191013201518 64 117 0.0 0.0 0.00 0.00 0.00 90 1016.9
20191013200000 65 117 0.0 0.0 0.00 0.00 0.00 88 1016.8
20191013194718 65 117 0.0 0.0 0.00 0.00 0.00 89 1017.1
20191013193219 64 117 0.0 0.0 0.00 0.00 0.00 88 1017.2
20191013191802 65 117 0.0 0.0 0.00 0.00 0.00 81 1017.1
20191013190221 66 117 0.0 0.0 0.00 0.00 0.00 76 1017.4
20191013184654 66 117 0.0 0.0 0.00 0.00 0.00 71 1017.3
20191013183143 66 117 0.0 1.0 0.00 0.00 0.00 73 1017.5
20191013181620 66 173 0.0 1.0 0.00 0.00 0.00 71 1017.5
20191013180215 67 173 0.0 1.0 0.00 0.00 0.00 69 1017.4
20191013174705 66 167 0.0 0.0 0.00 0.00 0.00 67 1017.7
20191013173152 65 169 0.0 1.0 0.00 0.00 0.00 68 1018.3
20191013171753 66 286 0.0 2.0 0.00 0.00 0.00 67 1018.7
20191013170145 69 160 0.0 1.0 0.00 0.00 0.00 61 1018.3
20191013164640 66 308 0.0 1.0 0.00 0.00 0.00 69 1018.6
20191013163239 65 213 0.0 1.0 0.00 0.00 0.00 67 1018.9